Time;durP1;ratioP1;P1;durP2;ratioP2;P2;SDS_P1;SDS_P2;PMS_P1;PMS_P2;Temp;Humidity;BMP_temperature;BMP_pressure;BME280_temperature;BME280_humidity;BME280_pressure;Samples;Min_cycle;Max_cycle;Signal;HPM_P1;HPM_P2
2022/03/03 00:00:23;;;;;;;19.65;11.40;;;8.30;45.10;;;;;;5067484;28;20029;-68
2022/03/03 00:02:49;;;;;;;19.30;11.68;;;8.30;45.20;;;;;;5059495;28;20116;-68
2022/03/03 00:05:15;;;;;;;20.40;12.30;;;8.30;45.20;;;;;;5061422;28;20361;-68
2022/03/03 00:07:40;;;;;;;19.88;11.93;;;8.20;45.20;;;;;;5063337;28;20361;-69
2022/03/03 00:10:08;;;;;;;19.67;11.88;;;8.20;45.30;;;;;;5067666;28;20064;-68
2022/03/03 00:12:34;;;;;;;20.08;11.82;;;8.20;45.40;;;;;;5053801;28;20052;-68
2022/03/03 00:15:00;;;;;;;19.60;10.90;;;8.10;45.50;;;;;;5051150;28;20021;-68
2022/03/03 00:17:27;;;;;;;20.00;11.82;;;8.10;45.50;;;;;;5065640;28;20028;-68
2022/03/03 00:19:53;;;;;;;18.75;12.18;;;8.10;45.60;;;;;;5054673;28;20029;-68
2022/03/03 00:22:19;;;;;;;21.02;11.65;;;8.10;45.60;;;;;;5056457;28;20083;-68
2022/03/03 00:24:44;;;;;;;20.67;12.48;;;8.10;45.70;;;;;;5053250;28;20443;-68
2022/03/03 00:27:11;;;;;;;21.55;13.77;;;8.10;45.80;;;;;;5053785;28;20057;-68
2022/03/03 00:29:36;;;;;;;20.40;12.68;;;8.10;45.90;;;;;;5053948;28;20037;-68
2022/03/03 00:32:02;;;;;;;24.77;14.25;;;8.00;45.90;;;;;;5054025;28;20031;-68
2022/03/03 00:34:28;;;;;;;22.58;13.38;;;8.00;46.00;;;;;;5071755;28;20040;-68
2022/03/03 00:36:54;;;;;;;22.27;12.52;;;8.00;46.10;;;;;;5039769;28;20438;-68
2022/03/03 00:39:20;;;;;;;21.50;13.00;;;7.90;46.20;;;;;;5070404;28;20028;-68
2022/03/03 00:41:46;;;;;;;22.63;13.20;;;7.90;46.30;;;;;;5059338;28;20127;-68
2022/03/03 00:44:11;;;;;;;18.95;11.65;;;7.90;46.40;;;;;;5053732;28;20115;-68
2022/03/03 00:46:37;;;;;;;19.58;12.50;;;7.80;46.40;;;;;;5040812;28;20037;-68
2022/03/03 00:49:03;;;;;;;22.55;13.15;;;7.80;46.40;;;;;;5064588;28;20456;-68
2022/03/03 00:51:29;;;;;;;22.77;14.68;;;7.80;46.60;;;;;;5063165;28;20029;-68
2022/03/03 00:53:55;;;;;;;22.38;13.68;;;7.80;46.80;;;;;;5059192;28;20094;-68
2022/03/03 00:56:21;;;;;;;21.60;12.98;;;7.80;46.80;;;;;;5045155;28;20040;-68
2022/03/03 00:58:47;;;;;;;20.23;12.10;;;7.70;46.80;;;;;;5054835;28;20037;-68
2022/03/03 01:01:14;;;;;;;22.98;13.00;;;7.70;46.90;;;;;;5053022;28;20025;-68
2022/03/03 01:03:40;;;;;;;20.73;12.07;;;7.70;46.90;;;;;;5061590;28;20064;-68
2022/03/03 01:06:05;;;;;;;18.73;12.30;;;7.70;46.90;;;;;;5049503;28;20520;-68
2022/03/03 01:08:31;;;;;;;20.13;12.25;;;7.70;47.00;;;;;;5051029;28;20024;-68
2022/03/03 01:10:56;;;;;;;18.23;12.07;;;7.70;47.00;;;;;;5071448;28;20101;-68
2022/03/03 01:13:22;;;;;;;20.75;13.02;;;7.60;47.00;;;;;;5062107;28;20025;-68
2022/03/03 01:15:49;;;;;;;19.98;11.82;;;7.60;47.00;;;;;;5052454;28;20090;-68
2022/03/03 01:18:15;;;;;;;21.55;12.82;;;7.60;47.00;;;;;;5049959;28;20052;-68
2022/03/03 01:20:41;;;;;;;19.10;12.75;;;7.60;47.00;;;;;;5046606;28;20030;-68
2022/03/03 01:23:07;;;;;;;20.08;12.38;;;7.50;47.00;;;;;;5061129;28;20028;-68
2022/03/03 01:25:33;;;;;;;20.00;12.90;;;7.50;47.00;;;;;;5052838;28;20428;-68
2022/03/03 01:27:58;;;;;;;19.73;11.77;;;7.50;47.10;;;;;;5043919;28;20023;-68
2022/03/03 01:30:24;;;;;;;20.48;12.68;;;7.50;47.20;;;;;;5048995;28;20448;-68
2022/03/03 01:32:50;;;;;;;20.30;12.90;;;7.50;47.20;;;;;;5056205;28;20033;-68
2022/03/03 01:35:15;;;;;;;21.83;12.95;;;7.40;47.20;;;;;;5079165;28;20045;-68
2022/03/03 01:37:41;;;;;;;21.42;12.98;;;7.40;47.30;;;;;;5033827;28;20069;-68
2022/03/03 01:40:07;;;;;;;21.85;12.60;;;7.40;47.30;;;;;;5060709;28;20124;-68
2022/03/03 01:42:33;;;;;;;21.67;12.85;;;7.40;47.40;;;;;;5056989;28;20033;-68
2022/03/03 01:44:58;;;;;;;20.42;12.82;;;7.40;47.40;;;;;;5061215;28;20473;-68
2022/03/03 01:47:26;;;;;;;19.70;12.35;;;7.40;47.50;;;;;;5043814;28;20365;-68
2022/03/03 01:49:54;;;;;;;20.17;12.18;;;7.40;47.50;;;;;;5061022;28;20468;-68
2022/03/03 01:52:20;;;;;;;22.25;14.27;;;7.30;47.50;;;;;;5058211;28;20036;-68
2022/03/03 01:54:46;;;;;;;24.08;12.60;;;7.30;47.70;;;;;;5061034;28;20048;-68
2022/03/03 01:57:11;;;;;;;22.85;13.45;;;7.20;47.70;;;;;;5046651;28;20447;-68
2022/03/03 01:59:38;;;;;;;21.13;13.57;;;7.20;47.80;;;;;;5053090;28;20032;-68
2022/03/03 02:02:06;;;;;;;23.27;14.27;;;7.20;47.90;;;;;;5051985;28;20096;-68
2022/03/03 02:04:32;;;;;;;21.42;13.50;;;7.20;48.00;;;;;;5055118;28;20039;-67
2022/03/03 02:06:58;;;;;;;21.42;12.68;;;7.20;48.00;;;;;;5037083;28;20121;-67
2022/03/03 02:09:24;;;;;;;20.27;11.60;;;7.10;48.00;;;;;;5046445;28;20036;-67
2022/03/03 02:11:51;;;;;;;20.58;13.35;;;7.10;48.10;;;;;;5035098;28;20025;-68
2022/03/03 02:14:17;;;;;;;20.70;12.65;;;7.10;48.10;;;;;;5053058;28;20155;-68
2022/03/03 02:16:42;;;;;;;23.48;13.63;;;7.10;48.20;;;;;;5052389;28;20065;-68
2022/03/03 02:19:14;;;;;;;22.23;12.95;;;7.10;48.30;;;;;;5021732;28;20431;-68
2022/03/03 02:21:40;;;;;;;22.13;13.52;;;7.00;48.20;;;;;;5055220;28;20032;-68
2022/03/03 02:24:07;;;;;;;20.52;12.40;;;7.00;48.40;;;;;;5055663;28;20033;-68
2022/03/03 02:26:33;;;;;;;24.08;14.40;;;7.00;48.50;;;;;;5053689;28;20385;-68
2022/03/03 02:28:58;;;;;;;23.50;13.63;;;7.00;48.60;;;;;;5037035;28;20037;-68
2022/03/03 02:31:24;;;;;;;20.35;13.20;;;7.00;48.70;;;;;;5057153;28;20343;-68
2022/03/03 02:33:49;;;;;;;22.23;14.45;;;6.90;48.80;;;;;;5038040;28;20044;-68
2022/03/03 02:36:27;;;;;;;21.25;12.90;;;6.90;48.80;;;;;;5041337;28;20025;-68
2022/03/03 02:38:55;;;;;;;20.33;12.63;;;6.90;48.80;;;;;;5051547;28;20032;-68
2022/03/03 02:41:21;;;;;;;20.73;13.15;;;6.90;48.80;;;;;;5050391;28;20040;-69
2022/03/03 02:43:47;;;;;;;20.70;14.23;;;6.90;49.00;;;;;;5055990;28;20029;-68
2022/03/03 02:46:13;;;;;;;20.88;13.63;;;6.80;49.10;;;;;;5039915;28;20439;-68
2022/03/03 02:48:39;;;;;;;19.35;12.52;;;6.80;49.20;;;;;;5059730;28;20041;-68
2022/03/03 02:51:05;;;;;;;24.05;14.55;;;6.80;49.10;;;;;;5041285;28;20380;-68
2022/03/03 02:53:32;;;;;;;22.90;13.88;;;6.80;49.10;;;;;;5061344;28;20037;-68
2022/03/03 02:55:57;;;;;;;21.45;13.93;;;6.80;49.10;;;;;;5068585;28;20028;-68
2022/03/03 02:58:23;;;;;;;22.02;14.02;;;6.70;49.20;;;;;;5066806;28;20025;-68
2022/03/03 03:00:51;;;;;;;23.63;13.48;;;6.70;49.50;;;;;;5056734;28;20029;-68
2022/03/03 03:03:17;;;;;;;24.73;13.75;;;6.70;49.60;;;;;;5060656;28;20029;-68
2022/03/03 03:05:43;;;;;;;21.13;13.73;;;6.60;49.60;;;;;;5048958;28;20032;-68
2022/03/03 03:08:10;;;;;;;21.73;12.80;;;6.60;49.50;;;;;;5070718;28;20031;-68
2022/03/03 03:10:36;;;;;;;22.40;13.52;;;6.60;49.50;;;;;;5054516;28;20127;-68
2022/03/03 03:13:02;;;;;;;23.95;13.90;;;6.60;49.60;;;;;;5062565;28;20036;-68
2022/03/03 03:15:28;;;;;;;21.75;13.88;;;6.60;49.60;;;;;;5046138;28;20361;-68
2022/03/03 03:17:54;;;;;;;22.90;14.13;;;6.60;49.70;;;;;;5073933;28;20024;-68
2022/03/03 03:20:20;;;;;;;23.60;13.45;;;6.60;49.70;;;;;;5056176;28;20028;-68
2022/03/03 03:22:46;;;;;;;23.67;13.60;;;6.60;49.80;;;;;;5055789;28;20029;-68
2022/03/03 03:25:13;;;;;;;25.55;14.95;;;6.50;50.00;;;;;;5058557;28;20036;-68
2022/03/03 03:27:40;;;;;;;24.55;14.32;;;6.50;49.70;;;;;;5076845;28;20056;-68
2022/03/03 03:30:11;;;;;;;22.48;14.35;;;6.50;49.70;;;;;;5038560;28;20044;-68
2022/03/03 03:32:37;;;;;;;23.88;13.93;;;6.40;49.70;;;;;;5056770;28;20039;-68
2022/03/03 03:35:04;;;;;;;24.83;13.98;;;6.40;49.90;;;;;;5055766;28;20041;-68
2022/03/03 03:37:30;;;;;;;22.23;14.20;;;6.40;49.90;;;;;;5067291;28;20029;-68
2022/03/03 03:39:56;;;;;;;23.90;14.70;;;6.40;50.00;;;;;;5053520;28;20036;-68
2022/03/03 03:42:21;;;;;;;21.20;13.10;;;6.40;49.90;;;;;;5055241;28;20388;-68
2022/03/03 03:44:47;;;;;;;20.48;14.15;;;6.40;49.90;;;;;;5042336;28;20053;-68
2022/03/03 03:47:13;;;;;;;20.88;13.77;;;6.40;50.00;;;;;;5038644;28;20033;-68
2022/03/03 03:49:39;;;;;;;21.60;14.00;;;6.40;50.20;;;;;;5035478;28;20025;-68
2022/03/03 03:52:05;;;;;;;22.42;12.93;;;6.30;50.20;;;;;;5073525;28;20086;-68
2022/03/03 03:54:31;;;;;;;25.40;15.18;;;6.30;50.30;;;;;;5037293;28;20040;-68
2022/03/03 03:56:56;;;;;;;22.95;14.30;;;6.30;50.50;;;;;;5054821;28;20024;-68
2022/03/03 03:59:22;;;;;;;23.33;13.45;;;6.20;50.50;;;;;;5056569;28;20037;-68
2022/03/03 04:01:48;;;;;;;22.20;13.40;;;6.20;50.50;;;;;;5069006;28;20028;-68
2022/03/03 04:04:13;;;;;;;22.40;13.80;;;6.20;50.60;;;;;;5062519;28;20025;-68
2022/03/03 04:06:40;;;;;;;21.95;12.85;;;6.20;50.80;;;;;;5069369;28;20029;-68
2022/03/03 04:09:06;;;;;;;24.38;13.63;;;6.20;50.80;;;;;;5067899;28;20021;-68
2022/03/03 04:11:31;;;;;;;21.05;13.07;;;6.10;50.70;;;;;;5056740;28;20127;-69
2022/03/03 04:13:58;;;;;;;22.10;14.40;;;6.10;50.80;;;;;;5045917;28;20126;-68
2022/03/03 04:16:26;;;;;;;20.52;13.10;;;6.10;50.90;;;;;;5062087;28;20020;-68
2022/03/03 04:18:52;;;;;;;24.90;16.27;;;6.10;51.10;;;;;;5049506;28;20580;-68
2022/03/03 04:21:18;;;;;;;22.73;14.25;;;6.10;51.20;;;;;;5056296;28;20369;-68
2022/03/03 04:23:44;;;;;;;23.73;14.70;;;6.00;51.20;;;;;;5037467;28;20025;-68
2022/03/03 04:26:10;;;;;;;23.83;14.60;;;6.00;51.30;;;;;;5057749;28;20101;-68
2022/03/03 04:28:36;;;;;;;22.45;13.98;;;6.00;51.20;;;;;;5074451;28;20047;-68
2022/03/03 04:31:03;;;;;;;21.13;12.05;;;6.00;51.20;;;;;;5063025;28;20029;-68
2022/03/03 04:33:29;;;;;;;26.75;15.73;;;6.00;51.20;;;;;;5055124;28;20041;-68
2022/03/03 04:35:56;;;;;;;23.65;14.95;;;6.00;51.10;;;;;;5048239;28;20020;-68
2022/03/03 04:38:22;;;;;;;21.52;14.07;;;6.00;51.30;;;;;;5054017;28;20024;-68
2022/03/03 04:40:47;;;;;;;24.45;15.15;;;6.00;51.30;;;;;;5058585;28;20033;-68
2022/03/03 04:43:13;;;;;;;23.20;14.13;;;6.00;51.30;;;;;;5046290;28;20033;-68
2022/03/03 04:45:39;;;;;;;23.48;14.27;;;5.90;51.30;;;;;;5056424;28;20021;-68
2022/03/03 04:48:04;;;;;;;24.33;14.48;;;5.90;51.30;;;;;;5056993;28;20027;-68
2022/03/03 04:50:30;;;;;;;21.25;13.85;;;5.90;51.40;;;;;;5053935;28;20017;-68
2022/03/03 04:52:56;;;;;;;24.23;14.88;;;5.90;52.10;;;;;;5019847;28;20469;-68
2022/03/03 04:55:22;;;;;;;23.90;14.45;;;5.80;51.50;;;;;;5033554;28;20104;-68
2022/03/03 04:57:48;;;;;;;27.08;14.95;;;5.80;51.60;;;;;;5040560;28;20418;-68
2022/03/03 05:00:14;;;;;;;24.02;14.70;;;5.80;51.90;;;;;;5038344;28;20154;-68
2022/03/03 05:02:40;;;;;;;22.20;13.87;;;5.70;51.90;;;;;;5049386;28;20033;-68
2022/03/03 05:05:06;;;;;;;23.83;15.13;;;5.70;52.10;;;;;;5050423;28;20123;-68
2022/03/03 05:07:32;;;;;;;28.33;14.70;;;5.70;52.20;;;;;;5054464;28;20029;-68
2022/03/03 05:09:58;;;;;;;21.90;12.45;;;5.70;52.30;;;;;;5054044;28;20036;-68
2022/03/03 05:12:24;;;;;;;21.88;14.35;;;5.60;52.20;;;;;;5061682;28;20357;-68
2022/03/03 05:14:50;;;;;;;21.60;13.32;;;5.70;52.20;;;;;;5042229;28;20021;-68
2022/03/03 05:17:15;;;;;;;20.90;14.15;;;5.70;52.20;;;;;;5065446;28;20437;-68
2022/03/03 05:19:41;;;;;;;23.90;14.55;;;5.60;52.20;;;;;;5067991;28;20029;-68
2022/03/03 05:22:07;;;;;;;24.98;14.63;;;5.60;52.30;;;;;;5055961;28;20025;-68
2022/03/03 05:24:32;;;;;;;24.25;14.73;;;5.60;52.40;;;;;;5017720;28;20025;-68
2022/03/03 05:26:58;;;;;;;23.38;14.07;;;5.60;52.50;;;;;;5060341;28;20100;-67
2022/03/03 05:29:23;;;;;;;23.85;15.27;;;5.60;52.60;;;;;;5073628;28;20112;-68
2022/03/03 05:31:49;;;;;;;22.67;13.95;;;5.50;52.60;;;;;;5059576;28;20037;-68
2022/03/03 05:34:15;;;;;;;23.70;14.52;;;5.50;52.50;;;;;;5057664;28;20069;-68
2022/03/03 05:36:41;;;;;;;22.73;15.37;;;5.50;52.60;;;;;;5055209;28;20055;-68
2022/03/03 05:39:08;;;;;;;24.05;14.15;;;5.50;52.80;;;;;;5062200;28;20060;-67
2022/03/03 05:41:34;;;;;;;23.85;13.43;;;5.50;52.80;;;;;;5051340;28;20449;-68
2022/03/03 05:44:00;;;;;;;22.30;13.82;;;5.50;52.80;;;;;;5072674;28;20086;-68
2022/03/03 05:46:27;;;;;;;22.98;13.98;;;5.40;52.90;;;;;;5054434;28;20037;-68
2022/03/03 05:48:52;;;;;;;25.23;15.63;;;5.40;53.10;;;;;;5054323;28;20022;-67
2022/03/03 05:51:19;;;;;;;23.83;15.20;;;5.30;53.20;;;;;;5053077;28;20128;-68
2022/03/03 05:53:45;;;;;;;23.00;15.63;;;5.30;53.20;;;;;;5061496;28;20045;-68
2022/03/03 05:56:14;;;;;;;22.80;15.00;;;5.30;53.40;;;;;;5055428;28;20029;-68
2022/03/03 05:58:46;;;;;;;22.80;14.68;;;5.30;53.50;;;;;;5049705;28;20026;-68
2022/03/03 06:01:13;;;;;;;27.17;15.80;;;5.30;53.50;;;;;;5043616;28;20031;-68
2022/03/03 06:03:39;;;;;;;24.88;14.35;;;5.20;53.40;;;;;;5058846;28;20128;-67
2022/03/03 06:06:15;;;;;;;23.92;14.55;;;5.30;53.50;;;;;;5049160;28;20053;-69
2022/03/03 06:09:01;;;;;;;22.63;13.80;;;5.20;53.50;;;;;;5057698;28;20428;-69
2022/03/03 06:11:27;;;;;;;23.42;15.05;;;5.20;53.40;;;;;;5054975;28;20576;-69
2022/03/03 06:14:01;;;;;;;26.50;14.67;;;5.20;53.50;;;;;;5053490;28;20021;-69
2022/03/03 06:16:27;;;;;;;23.97;15.00;;;5.20;53.40;;;;;;5048627;28;20033;-69
2022/03/03 06:18:53;;;;;;;22.67;14.80;;;5.20;53.40;;;;;;5050359;28;20022;-69
2022/03/03 06:21:18;;;;;;;23.50;15.47;;;5.20;53.30;;;;;;5051466;28;20028;-69
2022/03/03 06:23:44;;;;;;;22.67;15.07;;;5.20;53.40;;;;;;5057712;28;20103;-69
2022/03/03 06:26:13;;;;;;;22.13;13.33;;;5.20;53.50;;;;;;5050349;28;20037;-69
2022/03/03 06:28:39;;;;;;;23.42;14.05;;;5.20;53.40;;;;;;5047667;28;20434;-69
2022/03/03 06:31:06;;;;;;;22.00;13.75;;;5.20;53.40;;;;;;5040569;28;20083;-69
2022/03/03 06:33:33;;;;;;;20.75;13.35;;;5.20;53.20;;;;;;5055985;28;20374;-69
2022/03/03 06:35:59;;;;;;;22.15;14.00;;;5.20;53.10;;;;;;5053346;28;20112;-69
2022/03/03 06:38:25;;;;;;;24.15;15.48;;;5.30;53.20;;;;;;5055042;28;20118;-69
2022/03/03 06:40:51;;;;;;;23.17;14.18;;;5.30;53.10;;;;;;5053308;28;20025;-69
2022/03/03 06:43:16;;;;;;;21.90;13.43;;;5.20;53.00;;;;;;5055723;28;20037;-69
2022/03/03 06:45:42;;;;;;;22.38;14.13;;;5.30;53.70;;;;;;5056171;28;20032;-69
2022/03/03 06:48:09;;;;;;;25.03;15.43;;;5.30;53.20;;;;;;5040008;28;20025;-69
2022/03/03 06:50:39;;;;;;;21.93;14.70;;;5.20;53.20;;;;;;5067197;28;20048;-68
2022/03/03 06:53:07;;;;;;;25.08;14.38;;;5.30;53.20;;;;;;5050843;28;20028;-69
2022/03/03 06:55:34;;;;;;;24.20;14.23;;;5.30;53.00;;;;;;5053214;28;20027;-69
2022/03/03 06:58:00;;;;;;;23.58;13.25;;;5.40;53.10;;;;;;5045312;28;20385;-71
2022/03/03 07:00:33;;;;;;;23.65;14.13;;;5.40;52.90;;;;;;5057886;28;20024;-69
2022/03/03 07:03:03;;;;;;;24.83;15.35;;;5.50;52.90;;;;;;5054833;28;20025;-68
2022/03/03 07:05:30;;;;;;;26.90;15.37;;;5.50;52.90;;;;;;5054269;28;20338;-68
2022/03/03 07:07:57;;;;;;;22.92;13.73;;;5.50;52.90;;;;;;5058257;28;20032;-68
2022/03/03 07:10:25;;;;;;;25.13;14.47;;;5.50;52.90;;;;;;5057555;28;20033;-69
2022/03/03 07:12:57;;;;;;;25.67;15.17;;;5.50;52.90;;;;;;5055851;28;20033;-69
2022/03/03 07:15:24;;;;;;;23.20;14.52;;;5.50;52.90;;;;;;5055616;28;20039;-70
2022/03/03 07:17:53;;;;;;;22.90;14.63;;;5.50;52.70;;;;;;5060647;28;20025;-68
2022/03/03 07:20:57;;;;;;;23.58;15.15;;;5.60;52.70;;;;;;5073441;28;20109;-68
2022/03/03 07:23:36;;;;;;;23.40;13.65;;;5.60;52.60;;;;;;5067675;28;20036;-68
2022/03/03 07:26:04;;;;;;;22.30;14.07;;;5.70;52.40;;;;;;5069140;28;20442;-68
2022/03/03 07:28:30;;;;;;;24.93;15.50;;;5.80;52.30;;;;;;5056925;28;20533;-69
2022/03/03 07:30:59;;;;;;;22.88;15.23;;;5.90;52.10;;;;;;5041274;28;20040;-68
2022/03/03 07:33:47;;;;;;;22.13;14.13;;;6.00;52.00;;;;;;5061326;28;20140;-68
2022/03/03 07:36:28;;;;;;;23.65;14.27;;;6.10;51.80;;;;;;5066843;28;20112;-68
2022/03/03 07:39:08;;;;;;;19.90;13.27;;;6.30;51.60;;;;;;5039980;28;20116;-68
2022/03/03 07:41:34;;;;;;;24.45;12.35;;;6.40;51.20;;;;;;5051663;28;20049;-67
2022/03/03 07:44:00;;;;;;;22.52;13.93;;;6.50;50.90;;;;;;5052826;28;20043;-68
2022/03/03 07:46:27;;;;;;;24.87;12.57;;;6.70;50.70;;;;;;5055890;28;20096;-68
2022/03/03 07:48:53;;;;;;;20.57;13.10;;;6.80;50.40;;;;;;5057044;28;20053;-68
2022/03/03 07:51:24;;;;;;;21.40;13.13;;;6.90;50.20;;;;;;5055579;28;20025;-69
2022/03/03 07:53:50;;;;;;;20.55;13.32;;;7.10;50.10;;;;;;5055411;28;20032;-68
2022/03/03 07:56:25;;;;;;;20.30;12.32;;;7.20;49.80;;;;;;5055075;28;20025;-69
2022/03/03 07:59:03;;;;;;;21.17;13.32;;;7.30;49.50;;;;;;5055975;28;20090;-68
2022/03/03 08:01:30;;;;;;;18.75;12.40;;;7.50;49.40;;;;;;5038341;28;20089;-68
2022/03/03 08:04:00;;;;;;;19.13;12.20;;;7.60;49.10;;;;;;5068871;28;20476;-69
2022/03/03 08:06:26;;;;;;;22.30;12.63;;;7.80;48.80;;;;;;5065542;28;20056;-69
2022/03/03 08:08:55;;;;;;;23.60;12.15;;;7.90;48.50;;;;;;5055957;28;20040;-68
2022/03/03 08:11:24;;;;;;;21.95;13.10;;;8.10;48.30;;;;;;5054111;28;20029;-69
2022/03/03 08:13:53;;;;;;;19.10;12.45;;;8.20;48.00;;;;;;5059989;28;20142;-68
2022/03/03 08:16:19;;;;;;;19.00;11.98;;;8.40;47.80;;;;;;5067274;28;20426;-68
2022/03/03 08:18:47;;;;;;;22.70;11.70;;;8.60;47.60;;;;;;5042914;28;20030;-69
2022/03/03 08:21:13;;;;;;;19.63;12.13;;;8.80;47.30;;;;;;5040085;28;20465;-70
2022/03/03 08:23:40;;;;;;;19.30;12.38;;;9.00;47.00;;;;;;5051042;28;20346;-70
2022/03/03 08:26:06;;;;;;;19.75;12.13;;;9.20;46.80;;;;;;5050245;28;20090;-70
2022/03/03 08:28:32;;;;;;;18.30;12.27;;;9.30;46.50;;;;;;5063979;28;20505;-70
2022/03/03 08:31:03;;;;;;;18.40;12.20;;;9.50;46.20;;;;;;5061232;28;20112;-69
2022/03/03 08:33:36;;;;;;;21.52;11.35;;;9.70;46.00;;;;;;5055886;28;20072;-69
2022/03/03 08:36:06;;;;;;;16.88;11.40;;;9.90;45.60;;;;;;5057913;28;20042;-69
2022/03/03 08:38:37;;;;;;;17.00;10.80;;;10.10;45.30;;;;;;5045363;28;20092;-69
2022/03/03 08:41:04;;;;;;;17.17;10.48;;;10.30;45.00;;;;;;5061506;28;20021;-70
2022/03/03 08:43:32;;;;;;;16.88;10.95;;;10.50;44.80;;;;;;5035170;28;20029;-69
2022/03/03 08:46:02;;;;;;;16.50;10.63;;;10.70;44.50;;;;;;5065264;28;20036;-68
2022/03/03 08:48:30;;;;;;;15.15;10.68;;;10.80;44.20;;;;;;5053396;28;20112;-69
2022/03/03 08:50:57;;;;;;;17.27;10.88;;;11.00;44.00;;;;;;5040308;28;20461;-68
2022/03/03 08:53:23;;;;;;;17.05;11.25;;;11.20;43.80;;;;;;5086198;28;20029;-68
2022/03/03 08:55:49;;;;;;;19.50;10.68;;;11.30;43.60;;;;;;5071179;28;20086;-69
2022/03/03 08:58:14;;;;;;;15.68;10.05;;;11.40;43.30;;;;;;5044780;28;20056;-69
2022/03/03 09:00:41;;;;;;;18.20;11.18;;;11.60;43.10;;;;;;5043300;28;20036;-68
2022/03/03 09:03:07;;;;;;;15.88;8.90;;;11.80;42.90;;;;;;5052325;28;20051;-69
2022/03/03 09:05:33;;;;;;;18.10;11.32;;;11.90;42.70;;;;;;5054334;28;20454;-69
2022/03/03 09:07:59;;;;;;;16.92;10.38;;;12.00;42.40;;;;;;5053395;28;20112;-69
2022/03/03 09:10:25;;;;;;;18.25;10.90;;;12.00;42.20;;;;;;5036859;28;20086;-69
2022/03/03 09:12:51;;;;;;;19.58;10.57;;;12.20;42.10;;;;;;5050669;28;20025;-69
2022/03/03 09:15:17;;;;;;;18.30;11.05;;;12.30;42.00;;;;;;5030245;28;20025;-69
2022/03/03 09:17:43;;;;;;;16.80;10.88;;;12.40;41.70;;;;;;5033550;28;20029;-69
2022/03/03 09:20:14;;;;;;;16.67;10.57;;;12.50;41.50;;;;;;5049852;28;20049;-69
2022/03/03 09:22:41;;;;;;;16.60;11.20;;;12.50;41.40;;;;;;5034112;28;20025;-69
2022/03/03 09:25:07;;;;;;;15.95;11.10;;;12.60;41.20;;;;;;5050185;28;20033;-69
2022/03/03 09:27:33;;;;;;;17.33;10.63;;;12.60;40.90;;;;;;5050065;28;20363;-69
2022/03/03 09:29:58;;;;;;;18.83;12.80;;;12.70;40.80;;;;;;5052894;28;20029;-69
2022/03/03 09:32:24;;;;;;;15.77;11.00;;;12.80;40.70;;;;;;5053565;28;20473;-69
2022/03/03 09:34:50;;;;;;;15.38;10.40;;;12.90;40.60;;;;;;5053860;28;20037;-68
2022/03/03 09:37:16;;;;;;;14.77;9.85;;;12.90;40.40;;;;;;5054207;28;20366;-69
2022/03/03 09:39:44;;;;;;;16.48;11.07;;;12.90;40.40;;;;;;5053763;28;20167;-69
2022/03/03 09:42:10;;;;;;;15.43;10.20;;;13.00;40.30;;;;;;5054642;28;20036;-69
2022/03/03 09:44:36;;;;;;;16.48;10.85;;;13.10;40.30;;;;;;5054712;28;20033;-69
2022/03/03 09:47:02;;;;;;;17.75;9.98;;;13.30;40.20;;;;;;5040219;28;20025;-69
2022/03/03 09:49:28;;;;;;;14.45;8.93;;;13.30;40.00;;;;;;5057525;28;20449;-69
2022/03/03 09:51:54;;;;;;;16.92;11.27;;;13.40;39.90;;;;;;5040640;28;20095;-69
2022/03/03 09:54:20;;;;;;;16.08;10.77;;;13.50;39.80;;;;;;5058648;28;20083;-69
2022/03/03 09:56:45;;;;;;;15.98;10.30;;;13.60;39.80;;;;;;5040588;28;20029;-69
2022/03/03 09:59:12;;;;;;;15.88;10.07;;;13.60;39.80;;;;;;5058244;28;20027;-70
2022/03/03 10:01:38;;;;;;;18.40;10.35;;;13.70;39.70;;;;;;5057072;28;20032;-69
2022/03/03 10:04:14;;;;;;;16.58;10.35;;;13.70;39.60;;;;;;5058370;28;20025;-69
2022/03/03 10:06:41;;;;;;;14.45;9.48;;;13.80;39.60;;;;;;5040482;28;20065;-70
2022/03/03 10:09:08;;;;;;;15.82;10.02;;;13.80;39.60;;;;;;5057174;28;20103;-69
2022/03/03 10:11:59;;;;;;;15.20;9.40;;;13.80;39.60;;;;;;5058190;28;20438;-69
2022/03/03 10:14:26;;;;;;;15.00;9.67;;;13.80;39.60;;;;;;5056958;28;20083;-69
2022/03/03 10:16:52;;;;;;;15.82;11.48;;;13.80;39.70;;;;;;5056879;28;20021;-69
2022/03/03 10:19:17;;;;;;;18.00;10.40;;;13.90;39.50;;;;;;5073537;28;20523;-69
2022/03/03 10:21:43;;;;;;;16.13;10.57;;;14.00;39.60;;;;;;5058511;28;20025;-69
2022/03/03 10:24:19;;;;;;;15.77;9.27;;;14.00;39.50;;;;;;5057395;28;20036;-69
2022/03/03 10:26:47;;;;;;;15.45;10.55;;;14.00;39.30;;;;;;5057330;28;20423;-69
2022/03/03 10:29:21;;;;;;;20.65;9.93;;;14.00;39.50;;;;;;5058120;28;20440;-69
2022/03/03 10:31:51;;;;;;;20.98;9.75;;;14.00;39.30;;;;;;5057284;28;20036;-69
2022/03/03 10:34:35;;;;;;;17.08;9.45;;;14.10;39.30;;;;;;5056394;28;20048;-69
2022/03/03 10:37:07;;;;;;;13.52;7.57;;;14.20;39.30;;;;;;5039887;28;20100;-69
2022/03/03 10:39:43;;;;;;;;;;;14.30;39.20;;;;;;5056557;28;20404;-69
2022/03/03 10:42:14;;;;;;;13.48;8.35;;;14.30;39.30;;;;;;5057458;28;19908;-69
2022/03/03 10:44:39;;;;;;;15.07;9.88;;;14.30;39.80;;;;;;5056301;28;20025;-70
2022/03/03 10:47:07;;;;;;;15.00;8.68;;;14.30;39.10;;;;;;5056192;28;20029;-70
2022/03/03 10:49:37;;;;;;;14.48;10.25;;;14.30;39.20;;;;;;5039966;28;20442;-69
2022/03/03 10:52:16;;;;;;;16.77;10.82;;;14.40;39.10;;;;;;5039431;28;20381;-70
2022/03/03 10:54:49;;;;;;;14.05;9.10;;;14.40;39.00;;;;;;5055520;28;20033;-69
2022/03/03 10:57:34;;;;;;;14.13;9.00;;;14.40;39.10;;;;;;5055784;28;20021;-69
2022/03/03 11:00:21;;;;;;;13.15;8.68;;;14.50;39.10;;;;;;5056806;28;20025;-70
2022/03/03 11:02:49;;;;;;;14.38;8.52;;;14.50;38.90;;;;;;5038827;28;20151;-69
2022/03/03 11:05:16;;;;;;;14.30;8.73;;;14.50;39.00;;;;;;5056989;28;20399;-69
2022/03/03 11:07:46;;;;;;;12.95;8.45;;;14.60;39.50;;;;;;5057318;28;20139;-69
2022/03/03 11:10:17;;;;;;;17.38;9.20;;;14.60;38.70;;;;;;5055771;28;20025;-69
2022/03/03 11:12:44;;;;;;;19.85;8.93;;;14.60;38.70;;;;;;5056593;28;20111;-69
2022/03/03 11:15:11;;;;;;;13.52;8.43;;;14.60;38.70;;;;;;5035391;28;20037;-69
2022/03/03 11:17:37;;;;;;;12.60;7.95;;;14.70;38.60;;;;;;5033955;28;20442;-69
2022/03/03 11:20:04;;;;;;;12.48;8.02;;;14.70;38.30;;;;;;5035783;28;20056;-70
2022/03/03 11:22:31;;;;;;;15.38;8.65;;;14.80;38.20;;;;;;5037447;28;20029;-69
2022/03/03 11:25:01;;;;;;;13.25;7.75;;;14.80;38.10;;;;;;5055120;28;20071;-69
2022/03/03 11:27:35;;;;;;;13.25;8.32;;;14.80;38.00;;;;;;5039264;28;20045;-69
2022/03/03 11:30:24;;;;;;;11.95;7.55;;;14.80;37.80;;;;;;5050150;28;20025;-70
2022/03/03 11:33:28;;;;;;;11.68;7.97;;;14.80;37.60;;;;;;5054512;28;20090;-68
2022/03/03 11:36:01;;;;;;;12.27;6.85;;;14.80;37.60;;;;;;5056347;28;20040;-68
2022/03/03 11:39:04;;;;;;;13.95;8.25;;;14.80;37.80;;;;;;5062513;28;20114;-67
2022/03/03 11:41:51;;;;;;;11.93;7.32;;;14.90;37.70;;;;;;5003245;28;20030;-68
2022/03/03 11:44:19;;;;;;;13.48;7.65;;;14.90;37.50;;;;;;4980736;28;20065;-68
2022/03/03 11:46:51;;;;;;;14.32;7.85;;;15.00;37.50;;;;;;4980462;28;20089;-68
2022/03/03 11:49:29;;;;;;;11.10;7.25;;;15.00;37.50;;;;;;5004170;28;20478;-68
2022/03/03 11:51:56;;;;;;;11.95;7.30;;;15.00;37.40;;;;;;4979074;28;20034;-68
2022/03/03 11:54:30;;;;;;;11.27;7.63;;;15.00;37.50;;;;;;4995876;28;20132;-69
2022/03/03 11:57:04;;;;;;;11.73;7.65;;;15.10;37.50;;;;;;5010457;28;20076;-68
2022/03/03 11:59:35;;;;;;;11.68;7.82;;;15.20;37.30;;;;;;5034809;28;20033;-68
2022/03/03 12:02:00;;;;;;;11.35;7.57;;;15.30;37.20;;;;;;5009056;28;20451;-67
2022/03/03 12:04:27;;;;;;;13.40;8.60;;;15.30;37.20;;;;;;4992063;28;20039;-68
2022/03/03 12:06:54;;;;;;;12.35;7.80;;;15.30;36.70;;;;;;5001420;28;20045;-68
2022/03/03 12:09:26;;;;;;;12.93;8.23;;;15.30;36.80;;;;;;4997509;28;20050;-68
2022/03/03 12:12:10;;;;;;;13.80;8.40;;;15.30;36.80;;;;;;4992710;28;20499;-68
2022/03/03 12:14:53;;;;;;;13.10;8.48;;;15.20;36.70;;;;;;4991283;28;20045;-68
2022/03/03 12:17:58;;;;;;;10.95;7.32;;;15.20;36.80;;;;;;5051870;28;20116;-68
2022/03/03 12:20:24;;;;;;;13.13;7.80;;;15.10;36.80;;;;;;5037834;28;20354;-68
2022/03/03 12:23:10;;;;;;;12.15;8.57;;;15.00;36.90;;;;;;5034588;28;20025;-68
2022/03/03 12:25:47;;;;;;;12.45;8.25;;;15.00;36.70;;;;;;5054355;28;20074;-68
2022/03/03 12:28:25;;;;;;;13.15;8.13;;;14.80;36.40;;;;;;5054416;28;20465;-68
2022/03/03 12:30:57;;;;;;;12.77;7.75;;;14.80;36.60;;;;;;5071971;28;20444;-67
2022/03/03 12:33:25;;;;;;;12.20;7.90;;;14.80;36.60;;;;;;5071842;28;20033;-67
2022/03/03 12:35:56;;;;;;;12.43;7.65;;;14.70;36.40;;;;;;5071106;28;20024;-67
2022/03/03 12:38:23;;;;;;;12.00;7.25;;;14.70;36.40;;;;;;5071064;28;20100;-66
2022/03/03 12:40:49;;;;;;;12.27;7.65;;;14.60;36.40;;;;;;5071823;28;20409;-67